createdAt,value
2022-10-26T12:16:10.148Z,1008.38
2022-10-26T12:17:10.206Z,1008.31
2022-10-26T12:18:55.005Z,1008.34
2022-10-26T12:19:40.743Z,1008.37
2022-10-26T12:20:40.726Z,1008.34
2022-10-26T12:22:44.639Z,1008.44
2022-10-26T12:23:51.519Z,1008.43
2022-10-26T12:32:30.918Z,1008.50
2022-10-26T12:33:30.892Z,1008.54
2022-10-26T13:09:06.229Z,1008.81
2022-10-26T13:10:06.206Z,1008.83
2022-10-26T13:11:06.190Z,1008.82
2022-10-26T13:12:06.181Z,1008.82
2022-10-26T13:13:06.162Z,1008.87
2022-10-26T13:14:06.139Z,1008.80
2022-10-26T13:15:06.122Z,1008.76
2022-10-26T13:16:06.122Z,1008.78
2022-10-26T13:17:06.104Z,1008.76
2022-10-26T13:18:06.102Z,1008.79
2022-10-26T13:19:06.078Z,1008.78
2022-10-26T13:20:06.054Z,1008.78
2022-10-26T13:21:06.040Z,1008.80
2022-10-26T13:22:06.030Z,1008.81
2022-10-26T13:23:06.027Z,1008.79
2022-10-26T13:24:06.048Z,1008.79
2022-10-26T13:25:05.999Z,1008.80
2022-10-26T13:26:05.988Z,1008.85
2022-10-26T13:27:05.966Z,1008.83
2022-10-26T13:28:05.968Z,1008.86
2022-10-26T13:29:05.935Z,1008.85
2022-10-26T13:30:05.925Z,1008.87
2022-10-26T13:31:05.910Z,1008.86
2022-10-26T13:32:05.896Z,1008.91
2022-10-26T13:33:05.907Z,1008.90
2022-10-26T13:34:05.921Z,1008.85
2022-10-26T13:35:05.861Z,1008.84
2022-10-26T13:36:05.857Z,1008.90
2022-10-26T13:37:05.848Z,1008.90
2022-10-26T13:38:05.842Z,1008.90
2022-10-26T13:39:05.818Z,1008.90
2022-10-26T13:40:05.824Z,1008.91
2022-10-26T13:41:05.808Z,1008.87
2022-10-26T13:42:05.795Z,1008.90
2022-10-26T13:43:05.806Z,1008.88
2022-10-26T13:44:05.769Z,1008.90
2022-10-26T13:45:05.756Z,1008.93
2022-10-26T13:46:05.742Z,1008.92
2022-10-26T13:47:05.737Z,1008.97
2022-10-26T13:48:05.735Z,1008.92
2022-10-26T13:49:05.730Z,1008.91
2022-10-26T13:50:05.686Z,1008.95
2022-10-26T13:51:05.673Z,1008.96
2022-10-26T13:53:41.119Z,1008.93
2022-10-26T13:55:22.393Z,1009.01
2022-10-26T13:56:22.382Z,1009.03
2022-10-26T13:57:22.389Z,1009.07
2022-10-26T13:58:22.363Z,1009.08
2022-10-26T13:59:22.375Z,1009.08
2022-10-26T14:00:22.330Z,1009.09
2022-10-26T14:02:25.913Z,1009.08
2022-10-26T14:03:25.885Z,1009.06
2022-10-26T14:04:25.865Z,1009.09
2022-10-26T14:05:25.860Z,1009.07
2022-10-26T14:06:25.837Z,1009.07
